Flight Track Log - Related Links

Times and Time Zones

All times are in EDT time to prevent confusion due to time zone crossing. See the SKW6345 flight status page for this flight to view local times or setup timezone preferences in your user account.


Time Position Orientation Groundspeed Altitude Reporting Facility
EDT Latitude Longitude Course Direction KTS MPH feet Rate Location/Type
Wed 01:53:33 PM 45.6967 -111.1883 246° West 216 249 9,200  Level Salt Lake Center
Wed 01:54:35 PM 45.7067 -111.2839 279° West 235 270 10,500 1,161 Climbing Salt Lake Center
Wed 01:55:00 PM 45.7428 -111.6758 288° West  Level FlightAware Approximate
Wed 01:55:37 PM 45.7178 -111.4000 278° West 268 308 11,600  Level Salt Lake Center
Wed 01:56:00 PM 45.7785 -111.8364 288° West  Level FlightAware Approximate
Wed 01:56:39 PM 45.6969 -111.5172 256° West 298 343 13,500  Level Salt Lake Center
Wed 01:57:00 PM 45.8158 -111.9964 290° West  Level FlightAware Approximate
Wed 01:57:41 PM 45.6494 -111.6239 238° Southwest 316 364 15,100  Level Salt Lake Center
Wed 01:58:43 PM 45.5894 -111.7567 237° Southwest 331 381 16,800 1,403 Climbing Salt Lake Center
Wed 01:59:45 PM 45.5394 -111.8689 238° Southwest 335 386 18,000 1,161 Climbing Salt Lake Center
Wed 02:00:47 PM 45.4881 -111.9844 238° Southwest 342 394 19,200 1,065 Climbing Salt Lake Center
Wed 02:01:49 PM 45.4364 -112.1022 238° Southwest 349 402 20,200 1,113 Climbing Salt Lake Center
Wed 02:02:51 PM 45.3828 -112.2208 237° Southwest 356 410 21,500 1,210 Climbing Salt Lake Center
Wed 02:03:53 PM 45.3247 -112.3497 237° Southwest 363 418 22,700 1,065 Climbing Salt Lake Center
Wed 02:04:55 PM 45.2622 -112.4889 237° Southwest 372 428 23,700 871 Climbing Salt Lake Center
Wed 02:05:57 PM 45.2078 -112.6078 237° Southwest 375 432 24,500 864 Climbing Salt Lake Center
Wed 02:07:00 PM 45.1439 -112.7503 238° Southwest 382 440 25,500 816 Climbing Salt Lake Center
Wed 02:08:02 PM 45.0883 -112.8728 237° Southwest 386 444 26,200 726 Climbing Salt Lake Center
Wed 02:09:04 PM 45.0222 -113.0167 237° Southwest 390 449 27,000 629 Climbing Salt Lake Center
Wed 02:10:06 PM 44.9639 -113.1411 237° Southwest 396 456 27,500 581 Climbing Salt Lake Center
Wed 02:11:08 PM 44.8956 -113.2886 237° Southwest 402 463 28,200 581 Climbing Salt Lake Center
Wed 02:12:10 PM 44.8361 -113.4150 236° Southwest 403 464 28,700 581 Climbing Salt Lake Center
Wed 02:13:12 PM 44.7672 -113.5642 237° Southwest 406 467 29,400 629 Climbing Salt Lake Center
Wed 02:14:14 PM 44.7061 -113.6919 236° Southwest 411 473 30,000 629 Climbing Salt Lake Center
Wed 02:15:16 PM 44.6367 -113.8400 237° Southwest 408 470 30,700 629 Climbing Salt Lake Center
Wed 02:16:18 PM 44.5817 -113.9642 238° Southwest 406 467 31,300 581 Climbing Salt Lake Center
Wed 02:17:20 PM 44.5094 -114.1114 236° Southwest 407 468 31,900 339 Climbing Salt Lake Center
Wed 02:18:22 PM 44.4506 -114.2381 237° Southwest 405 466 32,000 48 Climbing Salt Lake Center
Wed 02:19:24 PM 44.3767 -114.3906 236° Southwest 418 481 32,000  Level Salt Lake Center
Wed 02:20:26 PM 44.3106 -114.5247 235° Southwest 431 496 32,000  Level Salt Lake Center
Wed 02:21:28 PM 44.2442 -114.6603 236° Southwest 438 504 32,000  Level Salt Lake Center
Wed 02:22:30 PM 44.1675 -114.8175 236° Southwest 439 505 32,000  Level Salt Lake Center
Wed 02:23:32 PM 44.1017 -114.9503 235° Southwest 436 502 32,000  Level Salt Lake Center
Wed 02:24:34 PM 44.0217 -115.1103 235° Southwest 447 514 32,000  Level Salt Lake Center
Wed 02:25:36 PM 43.9556 -115.2433 235° Southwest 437 503 32,000  Level Salt Lake Center
Wed 02:26:38 PM 43.8794 -115.3972 236° Southwest 433 498 32,000  Level Salt Lake Center
Wed 02:27:40 PM 43.8128 -115.5303 235° Southwest 437 503 32,000  Level Salt Lake Center
Wed 02:28:42 PM 43.7356 -115.6814 235° Southwest 428 493 32,000  Level Salt Lake Center
Wed 02:29:44 PM 43.6683 -115.8161 235° Southwest 440 506 32,000  Level Salt Lake Center
Wed 02:30:47 PM 43.6019 -115.9461 235° Southwest 433 498 32,000  Level Salt Lake Center
Wed 02:31:49 PM 43.5250 -116.0978 235° Southwest 432 497 32,000  Level Salt Lake Center
Wed 02:32:51 PM 43.4578 -116.2272 234° Southwest 432 497 32,000  Level Salt Lake Center
Wed 02:33:53 PM 43.3811 -116.3778 235° Southwest 430 495 32,000  Level Salt Lake Center
Wed 02:34:55 PM 43.3142 -116.5050 234° Southwest 428 493 32,000  Level Salt Lake Center
Wed 02:35:57 PM 43.2386 -116.6531 235° Southwest 424 488 32,000  Level Salt Lake Center
Wed 02:36:59 PM 43.1731 -116.7786 234° Southwest 422 486 32,000  Level Salt Lake Center
Wed 02:38:01 PM 43.0961 -116.9239 234° Southwest 420 483 32,000  Level Salt Lake Center
Wed 02:39:03 PM 43.0294 -117.0483 234° Southwest 423 487 32,000  Level Salt Lake Center
Wed 02:40:05 PM 42.9531 -117.1944 234° Southwest 424 488 32,000  Level Salt Lake Center
Wed 02:41:07 PM 42.8872 -117.3169 234° Southwest 420 483 32,000  Level Salt Lake Center
Wed 02:42:09 PM 42.8211 -117.4408 234° Southwest 421 484 32,000  Level Salt Lake Center
Wed 02:43:11 PM 42.7442 -117.5833 234° Southwest 416 479 32,000  Level Salt Lake Center
Wed 02:44:13 PM 42.6786 -117.7067 234° Southwest 418 481 32,000  Level Salt Lake Center
Wed 02:45:15 PM 42.5983 -117.8458 232° Southwest 418 481 32,000  Level Salt Lake Center
Wed 02:46:17 PM 42.5031 -117.9258 212° Southwest 425 489 32,000  Level Salt Lake Center
Wed 02:47:19 PM 42.3817 -117.9978 204° Southwest 426 490 32,000  Level Salt Lake Center
Wed 02:48:21 PM 42.2778 -118.0611 204° Southwest 429 494 32,000  Level Salt Lake Center
Wed 02:49:23 PM 42.1606 -118.1311 204° Southwest 421 484 32,000  Level Salt Lake Center
Wed 02:50:26 PM 42.0572 -118.1936 204° Southwest 424 488 32,000  Level Salt Lake Center
Wed 02:51:28 PM 41.9358 -118.2678 204° Southwest 429 494 32,000  Level Salt Lake Center
Wed 02:52:30 PM 41.8319 -118.3303 204° Southwest 427 491 32,000  Level Salt Lake Center
Wed 02:53:32 PM 41.7111 -118.4011 204° Southwest 426 490 32,000  Level Salt Lake Center
Wed 02:54:34 PM 41.6078 -118.4631 204° Southwest 425 489 32,000  Level Salt Lake Center
Wed 02:55:36 PM 41.4875 -118.5336 204° Southwest 424 488 32,000  Level Salt Lake Center
Wed 02:56:38 PM 41.3828 -118.5953 204° Southwest 427 491 32,000  Level Salt Lake Center
Wed 02:57:40 PM 41.2622 -118.6661 204° Southwest 425 489 32,000  Level Salt Lake Center
Wed 02:58:42 PM 41.1583 -118.7275 204° Southwest 426 490 32,000  Level Salt Lake Center
Wed 02:59:44 PM 41.0375 -118.7989 204° Southwest 427 491 32,000  Level Salt Lake Center
Wed 03:00:46 PM 40.9339 -118.8592 204° Southwest 426 490 32,000  Level Salt Lake Center
Wed 03:01:48 PM 40.8128 -118.9294 204° Southwest 426 490 32,000  Level Salt Lake Center
Wed 03:02:50 PM 40.7072 -118.9889 203° Southwest 430 495 32,000  Level Salt Lake Center
Wed 03:03:52 PM 40.5842 -119.0600 204° Southwest 430 495 32,000  Level Salt Lake Center
Wed 03:04:54 PM 40.4722 -119.1233 203° Southwest 427 491 32,000  Level Salt Lake Center
Wed 03:05:56 PM 40.3619 -119.1864 204° Southwest 430 495 32,000  Level Salt Lake Center
Wed 03:06:59 PM 40.2531 -119.2497 204° Southwest 431 496 32,000  Level Salt Lake Center
Wed 03:08:01 PM 40.1428 -119.3128 204° Southwest 432 497 32,000  Level Salt Lake Center
Wed 03:09:03 PM 40.0331 -119.3739 203° Southwest 431 496 32,000  Level Salt Lake Center
Wed 03:10:05 PM 39.9225 -119.4358 203° Southwest 432 497 32,000  Level Salt Lake Center
Wed 03:11:07 PM 39.7933 -119.5186 206° Southwest 433 498 32,000  Level Salt Lake Center
Wed 03:12:18 PM 39.7039 -119.6581 230° Southwest 421 484 32,000  Level Oakland Center
Wed 03:13:20 PM 39.6694 -119.8047 253° West 426 490 32,000  Level Oakland Center
Wed 03:14:21 PM 39.6375 -119.9511 254° West 423 487 32,000  Level Oakland Center
Wed 03:15:23 PM 39.6028 -120.0981 253° West 429 494 32,000  Level Oakland Center
Wed 03:16:25 PM 39.5639 -120.2489 252° West 420 483 32,000  Level Oakland Center
Wed 03:17:26 PM 39.5253 -120.3933 251° West 424 488 32,000  Level Oakland Center
Wed 03:18:28 PM 39.4881 -120.5383 252° West 426 490 32,000  Level Oakland Center
Wed 03:19:30 PM 39.4583 -120.6847 255° West 421 484 32,000  Level Oakland Center
Wed 03:20:31 PM 39.4461 -120.8358 264° West 420 483 32,000  Level Oakland Center
Wed 03:21:33 PM 39.4283 -121.0153 263° West 422 486 32,000  Level Oakland Center
Wed 03:22:35 PM 39.4144 -121.1656 263° West 422 486 32,000  Level Oakland Center
Wed 03:23:36 PM 39.4014 -121.3150 264° West 421 484 32,000  Level Oakland Center
Wed 03:24:38 PM 39.3867 -121.4644 263° West 421 484 32,000  Level Oakland Center
Wed 03:25:39 PM 39.3744 -121.6128 264° West 419 482 32,000  Level Oakland Center
Wed 03:26:41 PM 39.3611 -121.7619 263° West 420 483 32,000  Level Oakland Center
Wed 03:27:43 PM 39.3475 -121.9108 263° West 420 483 32,000  Level Oakland Center
Wed 03:28:44 PM 39.3000 -122.0797 250° West 422 486 32,000 -336 Level Oakland Center
Wed 03:29:48 PM 39.2394 -122.2042 238° Southwest 415 478 31,300 -1,210 Descending Oakland Center
Wed 03:30:48 PM 39.1436 -122.2750 210° Southwest 405 466 29,500 -1,686 Descending Oakland Center
Wed 03:31:49 PM 39.0411 -122.3325 204° Southwest 403 464 27,900 -1,220 Descending Oakland Center
Wed 03:32:51 PM 38.9436 -122.3881 204° Southwest 389 448 27,000 -968 Descending Oakland Center
Wed 03:33:53 PM 38.8475 -122.4425 204° Southwest 380 437 25,900 -1,415 Descending Oakland Center
Wed 03:34:54 PM 38.7533 -122.4936 203° Southwest 373 429 24,100 -1,805 Descending Oakland Center
Wed 03:35:56 PM 38.6592 -122.5469 204° Southwest 365 420 22,200 -1,984 Descending Oakland Center
Wed 03:36:58 PM 38.5525 -122.6069 204° Southwest 354 407 20,000 -1,756 Descending Oakland Center
Wed 03:37:59 PM 38.4664 -122.6539 203° Southwest 343 395 18,600 -1,512 Descending Oakland Center
Wed 03:39:01 PM 38.3833 -122.7000 204° Southwest 331 381 16,900 -1,610 Descending Oakland Center
Wed 03:40:02 PM 38.3033 -122.7447 204° Southwest 321 369 15,300 -1,610 Descending Oakland Center
Wed 03:41:04 PM 38.2236 -122.7878 203° Southwest 314 361 13,600 -1,645 Descending Oakland Center
Wed 03:42:06 PM 38.1469 -122.8314 204° Southwest 308 354 11,900 -1,268 Descending Oakland Center
Wed 03:43:07 PM 38.0564 -122.7903 160° South 307 353 11,000 -439 Descending Oakland Center
Wed 03:44:09 PM 37.9803 -122.7181 143° Southeast 326 375 11,000  Level Oakland Center
Wed 03:45:11 PM 37.8953 -122.6381 143° Southeast 385 443 11,000  Level Oakland Center
Wed 03:46:12 PM 37.8153 -122.5606 143° Southeast 381 438 11,000  Level Oakland Center
Wed 03:47:14 PM 37.7422 -122.4906 143° Southeast 281 323 11,000  Level Oakland Center
Wed 03:48:16 PM 37.6872 -122.4392 144° Southeast 255 293 11,000  Level Oakland Center
Wed 03:49:17 PM 37.6314 -122.3861 143° Southeast 251 289 11,000 -341 Level Oakland Center
Wed 03:50:19 PM 37.5742 -122.3419 149° Southeast 245 282 10,300 -878 Descending Oakland Center
Wed 03:51:20 PM 37.5125 -122.3064 155° Southeast 244 281 9,200 -1,463 Descending Oakland Center
Wed 03:52:22 PM 37.4558 -122.2622 148° Southeast 245 282 7,300 -1,597 Descending Oakland Center
Wed 03:53:24 PM 37.4358 -122.1828 108° East 243 280 5,900 -1,220 Descending Oakland Center
Wed 03:54:25 PM 37.4961 -122.1700 10° North 204 235 4,800 -1,122 Descending Oakland Center
Wed 03:55:27 PM 37.5372 -122.2003 330° Northwest 176 203 3,600 -1,171 Descending Oakland Center
Wed 03:56:28 PM 37.5628 -122.2433 307° West 164 189 2,400 -976 Descending Oakland Center
Wed 03:57:30 PM 37.5811 -122.2856 299° West 149 171 1,600 -823 Descending Oakland Center
Wed 03:58:32 PM 37.5956 -122.3228 296° West 133 153 700 -634 Descending Oakland Center
Wed 03:59:33 PM 37.6139 -122.3647 299° West 127 146 300 -393 Descending Oakland Center

Login

Don't have an account? Register now (free) for customized features, flight alerts, and more!